Portada
METAR-TAF:

METAR-TAF

Aeropuertos :

Gran Canaria, España

Aeropuerto de Gran Canaria

latitud: 27-56N, longitud: 015-23W, altitud: 23 m

Observación

El informe se hizo hace 26 minutos, a las 09:30 UTC
Viento 9 kt del noreste, variando entre norte-noreste y este
Temperatura 24°C
Humedad 74%
Presión 1019 hPa
Visibilidad 10 km o más
Escasas nubes a una altura de 1400 ft
Nubes dispersas a una altura de 3000 ft

METAR: GCLP 230930Z 05009KT 020V080 9999 FEW014 SCT030 24/19 Q1019 NOSIG

Hora: 10:56 (09:56 UTC)

Pronóstico

El informe se hizo hace 1 hora y 56 minutos, a las 08:00 UTC
Pronóstico válido del 23 a las 09 UTC al 24 a las 09 UTC
Viento 12 kt del noreste
Visibilidad 10 km o más
Escasas nubes a una altura de 2500 ft

TAF: GCLP 230800Z 2309/2409 04012KT 9999 FEW025 TX26/2313Z TN21/2406Z

Observaciones y pronósticos meteorológicos de más de 4000 aeropuertos (mensajes METAR y TAF).

Los puntos amarillos y rojos representan las estaciones disponibles.

Ponga el ratón en el punto deseado para ver el nombre de la estación.

Haga clic para ver las observaciones y los pronósticos meteorológicos.

Para cambiar el mapa : haga clic en los botones verdes con una cruz de color negro para hacer un zoom, en el botón verde con un guión para alejar o en las flechas verdes para mapas adyacentes.


METAR-TAF: